createdAt,value
2019-04-10T00:00:56.580Z,3.87
2019-04-10T00:03:32.841Z,3.70
2019-04-10T00:05:58.345Z,4.53
2019-04-10T00:08:28.332Z,3.27
2019-04-10T00:10:58.556Z,2.80
2019-04-10T00:13:29.344Z,3.30
2019-04-10T00:15:59.083Z,4.73
2019-04-10T00:18:29.769Z,2.03
2019-04-10T00:21:00.843Z,2.83
2019-04-10T00:23:31.149Z,2.90
2019-04-10T00:26:01.457Z,4.00
2019-04-10T00:28:31.751Z,5.13
2019-04-10T00:31:01.938Z,3.10
2019-04-10T00:33:31.228Z,2.17
2019-04-10T00:36:01.625Z,3.83
2019-04-10T00:38:31.545Z,4.43
2019-04-10T00:41:00.927Z,3.10
2019-04-10T00:43:30.834Z,2.60
2019-04-10T00:46:00.216Z,1.70
2019-04-10T00:48:30.065Z,4.33
2019-04-10T00:50:59.408Z,2.10
2019-04-10T00:53:29.611Z,2.10
2019-04-10T00:55:59.827Z,3.17
2019-04-10T00:58:30.162Z,3.70
2019-04-10T01:00:59.504Z,3.00
2019-04-10T01:03:44.237Z,3.40
2019-04-10T01:06:13.932Z,3.00
2019-04-10T01:08:43.340Z,2.67
2019-04-10T01:11:12.834Z,2.37
2019-04-10T01:13:43.075Z,2.73
2019-04-10T01:16:13.337Z,3.87
2019-04-10T01:18:43.610Z,3.10
2019-04-10T01:21:12.852Z,4.30
2019-04-10T01:23:42.175Z,4.40
2019-04-10T01:26:11.518Z,3.10
2019-04-10T01:28:40.906Z,3.87
2019-04-10T01:31:10.836Z,3.43
2019-04-10T01:33:40.903Z,3.10
2019-04-10T01:36:11.027Z,2.83
2019-04-10T01:38:40.369Z,3.90
2019-04-10T01:41:09.982Z,3.17
2019-04-10T01:43:39.343Z,3.20
2019-04-10T01:46:08.884Z,2.90
2019-04-10T01:48:38.461Z,2.30
2019-04-10T01:51:08.704Z,3.40
2019-04-10T01:53:38.785Z,4.03
2019-04-10T01:56:21.271Z,3.57
2019-04-10T01:58:41.296Z,2.30
2019-04-10T02:01:18.982Z,2.60
2019-04-10T02:03:48.186Z,3.07
2019-04-10T02:06:17.429Z,3.43
2019-04-10T02:08:47.631Z,3.07
2019-04-10T02:11:17.574Z,4.03
2019-04-10T02:13:47.654Z,2.60
2019-04-10T02:16:16.924Z,3.03
2019-04-10T02:18:46.193Z,4.07
2019-04-10T02:21:17.960Z,3.10
2019-04-10T02:23:47.213Z,2.33
2019-04-10T02:26:17.137Z,4.20
2019-04-10T02:28:47.087Z,3.67
2019-04-10T02:31:16.416Z,3.20
2019-04-10T02:33:47.255Z,4.00
2019-04-10T02:36:17.346Z,3.50
2019-04-10T02:38:59.673Z,2.90
2019-04-10T02:41:19.226Z,3.57
2019-04-10T02:43:48.648Z,4.43
2019-04-10T02:46:19.590Z,5.33
2019-04-10T02:48:50.101Z,3.33
2019-04-10T02:51:19.979Z,4.03
2019-04-10T02:53:51.690Z,3.23
2019-04-10T02:56:23.006Z,3.97
2019-04-10T02:58:54.207Z,4.13
2019-04-10T03:01:25.082Z,3.67
2019-04-10T03:03:55.552Z,3.70
2019-04-10T03:06:27.035Z,3.67
2019-04-10T03:09:11.893Z,3.43
2019-04-10T03:11:28.040Z,4.77
2019-04-10T03:13:59.071Z,2.40
2019-04-10T03:16:29.159Z,2.77
2019-04-10T03:18:58.808Z,6.10
2019-04-10T03:21:29.258Z,4.40
2019-04-10T03:24:00.035Z,2.70
2019-04-10T03:26:29.912Z,3.97
2019-04-10T03:28:59.722Z,3.53
2019-04-10T03:31:31.583Z,4.83
2019-04-10T03:34:08.752Z,3.20
2019-04-10T03:36:39.966Z,3.10
2019-04-10T03:39:10.771Z,3.73
2019-04-10T03:41:40.208Z,2.10
2019-04-10T03:44:10.293Z,2.77
2019-04-10T03:46:40.140Z,2.90
2019-04-10T03:49:09.663Z,4.63
2019-04-10T03:51:39.485Z,2.57
2019-04-10T03:54:09.083Z,2.97
2019-04-10T03:56:38.409Z,2.83
2019-04-10T03:59:09.522Z,2.33
2019-04-10T04:01:39.058Z,3.53
2019-04-10T04:04:10.206Z,3.30
2019-04-10T04:06:41.886Z,3.47
2019-04-10T04:09:13.162Z,4.17
2019-04-10T04:11:42.330Z,4.53
2019-04-10T04:14:14.451Z,4.30
2019-04-10T04:16:44.138Z,3.80
2019-04-10T04:19:13.707Z,4.43
2019-04-10T04:21:43.964Z,4.93
2019-04-10T04:24:15.591Z,3.27
2019-04-10T04:26:44.858Z,4.83
2019-04-10T04:29:14.392Z,4.57
2019-04-10T04:31:44.318Z,2.67
2019-04-10T04:34:14.239Z,2.97
2019-04-10T04:36:48.899Z,3.40
2019-04-10T04:39:25.687Z,3.90
2019-04-10T04:41:52.142Z,3.33
2019-04-10T04:44:22.207Z,3.53
2019-04-10T04:46:52.631Z,3.73
2019-04-10T04:49:22.382Z,4.50
2019-04-10T04:51:54.654Z,4.05
2019-04-10T04:54:25.461Z,2.90
2019-04-10T04:56:56.149Z,2.07
2019-04-10T04:59:26.161Z,3.00
2019-04-10T05:01:55.769Z,2.73
2019-04-10T05:04:25.432Z,3.67
2019-04-10T05:06:55.575Z,3.70
2019-04-10T05:09:31.084Z,3.47
2019-04-10T05:11:56.305Z,3.77
2019-04-10T05:14:25.587Z,3.30
2019-04-10T05:16:55.577Z,3.60
2019-04-10T05:19:25.623Z,4.53
2019-04-10T05:21:54.919Z,4.00
2019-04-10T05:24:26.039Z,2.90
2019-04-10T05:26:55.330Z,3.57
2019-04-10T05:29:29.305Z,4.07
2019-04-10T05:31:57.416Z,3.40
2019-04-10T05:34:29.907Z,3.47
2019-04-10T05:36:59.555Z,4.60
2019-04-10T05:39:39.700Z,2.57
2019-04-10T05:42:02.351Z,4.00
2019-04-10T05:44:31.945Z,5.00
2019-04-10T05:47:01.258Z,4.10
2019-04-10T05:49:31.590Z,3.07
2019-04-10T05:52:02.031Z,4.37
2019-04-10T05:54:31.688Z,4.47
2019-04-10T05:57:04.099Z,5.37
2019-04-10T05:59:34.302Z,3.60
2019-04-10T06:02:03.681Z,4.77
2019-04-10T06:04:33.605Z,2.93
2019-04-10T06:07:03.334Z,4.70
2019-04-10T06:09:33.121Z,2.03
2019-04-10T06:12:04.095Z,3.00
2019-04-10T06:14:34.520Z,3.90
2019-04-10T06:17:04.441Z,3.37
2019-04-10T06:19:34.446Z,3.63
2019-04-10T06:22:05.116Z,2.33
2019-04-10T06:24:34.645Z,3.07
2019-04-10T06:27:04.183Z,3.97
2019-04-10T06:29:35.053Z,4.80
2019-04-10T06:32:05.337Z,4.97
2019-04-10T06:34:34.632Z,4.00
2019-04-10T06:37:04.265Z,4.30
2019-04-10T06:39:33.543Z,4.50
2019-04-10T06:42:04.548Z,3.77
2019-04-10T06:44:34.599Z,3.50
2019-04-10T06:47:04.248Z,2.10
2019-04-10T06:49:33.743Z,6.30
2019-04-10T06:52:03.024Z,4.80
2019-04-10T06:54:33.109Z,3.80
2019-04-10T06:57:02.858Z,4.00
2019-04-10T06:59:32.467Z,3.90
2019-04-10T07:02:13.936Z,4.03
2019-04-10T07:04:43.988Z,3.03
2019-04-10T07:07:10.728Z,2.93
2019-04-10T07:09:37.953Z,5.07
2019-04-10T07:12:08.014Z,3.90
2019-04-10T07:14:38.463Z,5.40
2019-04-10T07:17:09.293Z,4.63
2019-04-10T07:19:41.487Z,5.07
2019-04-10T07:22:14.269Z,4.77
2019-04-10T07:24:44.015Z,3.87
2019-04-10T07:27:14.053Z,5.80
2019-04-10T07:29:44.591Z,4.40
2019-04-10T07:32:14.985Z,4.70
2019-04-10T07:34:44.985Z,5.50
2019-04-10T07:37:17.668Z,5.00
2019-04-10T07:39:46.774Z,3.80
2019-04-10T07:42:26.964Z,5.17
2019-04-10T07:44:47.365Z,4.70
2019-04-10T07:47:17.444Z,4.00
2019-04-10T07:49:46.754Z,3.80
2019-04-10T07:52:17.132Z,3.90
2019-04-10T07:54:48.175Z,5.40
2019-04-10T07:57:17.553Z,4.00
2019-04-10T07:59:46.777Z,4.00
2019-04-10T08:02:16.354Z,5.13
2019-04-10T08:04:45.641Z,4.50
2019-04-10T08:07:28.547Z,4.70
2019-04-10T08:09:46.812Z,4.00
2019-04-10T08:12:16.411Z,2.87
2019-04-10T08:14:46.379Z,4.40
2019-04-10T08:17:16.378Z,3.93
2019-04-10T08:19:45.683Z,5.23
2019-04-10T08:22:17.977Z,3.87
2019-04-10T08:24:49.221Z,3.30
2019-04-10T08:27:19.341Z,4.10
2019-04-10T08:29:49.042Z,4.70
2019-04-10T08:32:18.709Z,4.60
2019-04-10T08:34:48.808Z,3.50
2019-04-10T08:37:19.121Z,5.93
2019-04-10T08:39:49.871Z,5.77
2019-04-10T08:42:22.381Z,5.70
2019-04-10T08:44:52.166Z,5.30
2019-04-10T08:47:21.495Z,3.57
2019-04-10T08:49:50.746Z,5.50
2019-04-10T08:52:20.038Z,4.53
2019-04-10T08:54:49.246Z,4.67
2019-04-10T08:57:19.325Z,5.30
2019-04-10T08:59:49.059Z,3.50
2019-04-10T09:02:18.311Z,4.80
2019-04-10T09:04:47.544Z,4.37
2019-04-10T09:07:16.948Z,5.30
2019-04-10T09:09:46.291Z,6.27
2019-04-10T09:12:15.775Z,5.40
2019-04-10T09:14:45.520Z,5.00
2019-04-10T09:17:15.306Z,4.90
2019-04-10T09:19:44.699Z,6.43
2019-04-10T09:22:14.156Z,4.20
2019-04-10T09:24:44.556Z,5.13
2019-04-10T09:27:15.042Z,5.30
2019-04-10T09:29:44.583Z,4.80
2019-04-10T09:32:14.605Z,6.50
2019-04-10T09:34:46.406Z,5.80
2019-04-10T09:37:17.794Z,6.03
2019-04-10T09:39:47.960Z,5.40
2019-04-10T09:42:20.058Z,7.30
2019-04-10T09:44:49.339Z,6.07
2019-04-10T09:47:18.581Z,6.30
2019-04-10T09:49:49.263Z,3.63
2019-04-10T09:52:18.843Z,5.10
2019-04-10T09:54:48.924Z,6.23
2019-04-10T09:57:18.634Z,6.53
2019-04-10T09:59:48.850Z,7.77
2019-04-10T10:02:18.217Z,6.37
2019-04-10T10:04:48.096Z,5.13
2019-04-10T10:07:18.624Z,7.87
2019-04-10T10:09:49.254Z,7.90
2019-04-10T10:12:18.616Z,6.30
2019-04-10T10:14:48.411Z,5.40
2019-04-10T10:17:17.683Z,6.47
2019-04-10T10:19:48.083Z,5.57
2019-04-10T10:22:17.361Z,7.60
2019-04-10T10:24:46.848Z,7.57
2019-04-10T10:27:16.384Z,7.37
2019-04-10T10:29:46.006Z,6.33
2019-04-10T10:32:15.506Z,7.23
2019-04-10T10:34:44.921Z,7.30
2019-04-10T10:37:14.618Z,6.00
2019-04-10T10:39:45.747Z,8.43
2019-04-10T10:42:15.741Z,4.60
2019-04-10T10:44:45.934Z,5.90
2019-04-10T10:47:15.922Z,6.37
2019-04-10T10:49:45.467Z,5.90
2019-04-10T10:52:15.301Z,6.60
2019-04-10T10:54:45.232Z,6.27
2019-04-10T10:57:15.187Z,5.90
2019-04-10T10:59:44.589Z,6.70
2019-04-10T11:02:13.846Z,6.13
2019-04-10T11:04:43.452Z,5.53
2019-04-10T11:07:14.451Z,7.60
2019-04-10T11:09:44.477Z,5.70
2019-04-10T11:12:14.844Z,6.10
2019-04-10T11:14:45.596Z,4.80
2019-04-10T11:17:15.803Z,6.83
2019-04-10T11:19:47.317Z,5.50
2019-04-10T11:22:22.478Z,5.50
2019-04-10T11:24:49.410Z,7.43
2019-04-10T11:27:19.472Z,4.73
2019-04-10T11:29:50.808Z,5.60
2019-04-10T11:32:22.162Z,4.97
2019-04-10T11:34:52.890Z,5.90
2019-04-10T11:37:33.768Z,4.43
2019-04-10T11:39:54.957Z,5.40
2019-04-10T11:42:26.551Z,5.20
2019-04-10T11:44:56.904Z,4.00
2019-04-10T11:47:26.797Z,4.67
2019-04-10T11:49:58.605Z,3.97
2019-04-10T11:52:36.358Z,4.30
2019-04-10T11:55:08.749Z,5.40
2019-04-10T11:57:32.464Z,4.30
2019-04-10T12:00:06.122Z,3.77
2019-04-10T12:02:34.650Z,3.27
2019-04-10T12:05:10.913Z,5.23
2019-04-10T12:08:00.062Z,3.27
2019-04-10T12:12:38.905Z,4.83
2019-04-10T12:15:10.181Z,4.25
2019-04-10T12:17:40.239Z,4.33
2019-04-10T12:20:11.169Z,4.20
2019-04-10T12:22:42.609Z,2.70
2019-04-10T12:25:12.436Z,3.07
2019-04-10T12:27:42.183Z,3.07
2019-04-10T12:30:11.574Z,4.00
2019-04-10T12:32:41.089Z,4.50
2019-04-10T12:35:10.989Z,3.97
2019-04-10T12:37:41.181Z,3.40
2019-04-10T12:40:11.744Z,4.30
2019-04-10T12:42:41.213Z,3.77
2019-04-10T12:45:11.417Z,3.87
2019-04-10T12:47:41.631Z,3.80
2019-04-10T12:50:12.137Z,4.10
2019-04-10T12:52:42.854Z,4.57
2019-04-10T12:55:12.658Z,5.40
2019-04-10T12:57:41.895Z,5.00
2019-04-10T13:00:14.082Z,4.20
2019-04-10T13:02:43.316Z,4.27
2019-04-10T13:05:13.546Z,3.20
2019-04-10T13:07:43.589Z,4.90
2019-04-10T13:10:14.962Z,4.27
2019-04-10T13:12:45.250Z,4.20
2019-04-10T13:15:15.150Z,4.73
2019-04-10T13:17:44.502Z,4.40
2019-04-10T13:20:14.254Z,6.13
2019-04-10T13:22:46.409Z,3.97
2019-04-10T13:25:16.349Z,4.20
2019-04-10T13:27:45.985Z,4.27
2019-04-10T13:30:16.544Z,3.47
2019-04-10T13:32:46.290Z,4.03
2019-04-10T13:35:15.839Z,3.55
2019-04-10T13:37:47.659Z,4.20
2019-04-10T13:40:17.418Z,4.90
2019-04-10T13:42:47.419Z,4.47
2019-04-10T13:45:19.310Z,5.37
2019-04-10T13:47:49.652Z,4.90
2019-04-10T13:50:19.063Z,3.97
2019-04-10T13:52:52.661Z,3.23
2019-04-10T13:55:22.498Z,4.40
2019-04-10T13:57:52.910Z,3.73
2019-04-10T14:00:38.411Z,6.03
2019-04-10T14:03:06.938Z,4.43
2019-04-10T14:05:36.950Z,5.23
2019-04-10T14:08:06.901Z,3.20
2019-04-10T14:10:39.356Z,4.37
2019-04-10T14:13:07.582Z,3.00
2019-04-10T14:15:37.179Z,3.60
2019-04-10T14:18:06.817Z,4.00
2019-04-10T14:20:36.106Z,4.37
2019-04-10T14:23:12.932Z,3.33
2019-04-10T14:25:53.512Z,4.10
2019-04-10T14:28:25.285Z,4.43
2019-04-10T14:30:56.072Z,5.30
2019-04-10T14:33:26.255Z,3.40
2019-04-10T14:35:55.847Z,4.28
2019-04-10T14:38:27.375Z,3.17
2019-04-10T14:40:57.720Z,3.80
2019-04-10T14:43:28.424Z,3.07
2019-04-10T14:45:57.820Z,3.30
2019-04-10T14:48:27.929Z,3.50
2019-04-10T14:50:57.694Z,3.23
2019-04-10T14:53:27.078Z,3.37
2019-04-10T14:55:57.725Z,3.63
2019-04-10T14:58:29.659Z,3.27
2019-04-10T15:00:59.813Z,2.33
2019-04-10T15:03:29.080Z,3.07
2019-04-10T15:06:00.978Z,3.10
2019-04-10T15:08:29.301Z,2.33
2019-04-10T15:10:58.914Z,3.00
2019-04-10T15:13:28.153Z,2.53
2019-04-10T15:15:57.396Z,2.10
2019-04-10T15:18:26.882Z,2.07
2019-04-10T15:20:56.668Z,2.47
2019-04-10T15:23:27.496Z,1.93
2019-04-10T15:25:57.626Z,1.97
2019-04-10T15:28:29.720Z,2.93
2019-04-10T15:31:00.023Z,2.20
2019-04-10T15:33:31.771Z,2.17
2019-04-10T15:36:01.929Z,2.00
2019-04-10T15:38:31.233Z,2.00
2019-04-10T15:41:00.919Z,1.37
2019-04-10T15:43:30.599Z,2.40
2019-04-10T15:46:00.204Z,2.57
2019-04-10T15:48:31.339Z,2.33
2019-04-10T15:51:00.870Z,2.10
2019-04-10T15:53:30.456Z,1.80
2019-04-10T15:56:01.204Z,2.67
2019-04-10T15:58:31.144Z,2.87
2019-04-10T16:01:01.371Z,2.10
2019-04-10T16:03:30.821Z,3.30
2019-04-10T16:06:01.554Z,2.30
2019-04-10T16:08:30.817Z,2.90
2019-04-10T16:11:13.813Z,3.00
2019-04-10T16:13:44.873Z,2.60
2019-04-10T16:16:37.513Z,3.10
2019-04-10T16:19:18.330Z,2.40
2019-04-10T16:21:47.702Z,1.80
2019-04-10T16:24:17.760Z,2.37
2019-04-10T16:26:47.475Z,2.43
2019-04-10T16:29:18.117Z,3.20
2019-04-10T16:31:48.240Z,2.80
2019-04-10T16:34:17.709Z,4.27
2019-04-10T16:36:47.953Z,4.07
2019-04-10T16:39:19.584Z,2.83
2019-04-10T16:41:50.442Z,9.10
2019-04-10T16:44:19.774Z,6.80
2019-04-10T16:46:50.843Z,3.60
2019-04-10T16:49:22.423Z,3.47
2019-04-10T16:51:52.460Z,3.20
2019-04-10T16:54:22.000Z,5.10
2019-04-10T16:56:52.055Z,2.20
2019-04-10T16:59:21.475Z,3.17
2019-04-10T17:01:51.129Z,2.70
2019-04-10T17:04:21.047Z,2.20
2019-04-10T17:06:50.535Z,3.40
2019-04-10T17:09:22.724Z,3.37
2019-04-10T17:11:53.730Z,3.47
2019-04-10T17:14:23.810Z,3.13
2019-04-10T17:16:57.783Z,3.10
2019-04-10T17:19:27.227Z,3.57
2019-04-10T17:21:56.501Z,3.03
2019-04-10T17:24:25.740Z,2.27
2019-04-10T17:26:55.216Z,3.03
2019-04-10T17:29:25.106Z,3.60
2019-04-10T17:31:55.027Z,2.60
2019-04-10T17:34:24.945Z,3.80
2019-04-10T17:36:54.275Z,2.37
2019-04-10T17:39:25.131Z,3.70
2019-04-10T17:41:55.764Z,2.87
2019-04-10T17:44:25.599Z,3.20
2019-04-10T17:46:55.639Z,2.70
2019-04-10T17:49:25.655Z,2.00
2019-04-10T17:51:56.498Z,3.27
2019-04-10T17:54:26.829Z,2.50
2019-04-10T17:56:57.071Z,3.23
2019-04-10T17:59:26.724Z,2.47
2019-04-10T18:01:59.096Z,2.83
2019-04-10T18:04:29.786Z,2.47
2019-04-10T18:06:59.656Z,3.50
2019-04-10T18:09:30.580Z,3.47
2019-04-10T18:12:01.027Z,2.53
2019-04-10T18:14:31.278Z,3.23
2019-04-10T18:17:00.703Z,3.17
2019-04-10T18:19:30.376Z,2.47
2019-04-10T18:22:00.495Z,3.10
2019-04-10T18:24:30.516Z,3.80
2019-04-10T18:27:01.157Z,3.00
2019-04-10T18:29:31.044Z,2.60
2019-04-10T18:32:02.320Z,4.13
2019-04-10T18:34:31.894Z,3.87
2019-04-10T18:37:03.714Z,3.17
2019-04-10T18:39:32.604Z,3.80
2019-04-10T18:42:03.425Z,3.30
2019-04-10T18:44:35.208Z,3.13
2019-04-10T18:47:05.011Z,2.73
2019-04-10T18:49:35.552Z,2.60
2019-04-10T18:52:05.459Z,3.70
2019-04-10T18:54:35.994Z,3.67
2019-04-10T18:57:05.453Z,3.93
2019-04-10T18:59:57.132Z,3.43
2019-04-10T19:02:45.365Z,3.30
2019-04-10T19:05:27.939Z,3.77
2019-04-10T19:07:58.629Z,4.57
2019-04-10T19:10:28.708Z,4.30
2019-04-10T19:12:59.517Z,3.90
2019-04-10T19:15:49.244Z,3.60
2019-04-10T19:18:19.560Z,2.70
2019-04-10T19:20:49.269Z,3.90
2019-04-10T19:23:19.436Z,3.00
2019-04-10T19:25:49.302Z,3.53
2019-04-10T19:28:30.071Z,3.70
2019-04-10T19:31:08.732Z,3.87
2019-04-10T19:33:31.233Z,3.10
2019-04-10T19:36:01.574Z,3.12
2019-04-10T19:38:31.603Z,5.87
2019-04-10T19:41:00.994Z,3.43
2019-04-10T19:43:33.124Z,4.63
2019-04-10T19:46:04.102Z,3.80
2019-04-10T19:48:33.746Z,4.60
2019-04-10T19:51:04.092Z,4.13
2019-04-10T19:53:33.311Z,4.60
2019-04-10T19:56:02.569Z,4.80
2019-04-10T19:58:32.318Z,4.90
2019-04-10T20:01:03.141Z,4.53
2019-04-10T20:03:32.808Z,4.33
2019-04-10T20:06:02.315Z,3.43
2019-04-10T20:08:33.399Z,3.30
2019-04-10T20:11:33.775Z,5.20
2019-04-10T20:13:59.986Z,4.60
2019-04-10T20:16:28.154Z,5.60
2019-04-10T20:18:57.806Z,4.50
2019-04-10T20:21:27.995Z,4.57
2019-04-10T20:23:58.622Z,4.17
2019-04-10T20:26:29.321Z,5.00
2019-04-10T20:29:00.021Z,5.17
2019-04-10T20:31:31.843Z,4.97
2019-04-10T20:34:01.493Z,3.97
2019-04-10T20:36:31.179Z,5.28
2019-04-10T20:39:03.142Z,4.40
2019-04-10T20:41:46.115Z,4.67
2019-04-10T20:44:05.263Z,3.90
2019-04-10T20:46:35.985Z,6.07
2019-04-10T20:49:07.997Z,5.00
2019-04-10T20:51:36.349Z,4.87
2019-04-10T20:54:06.550Z,3.90
2019-04-10T20:56:36.906Z,4.57
2019-04-10T20:59:06.389Z,4.30
2019-04-10T21:01:37.221Z,5.50
2019-04-10T21:04:07.316Z,4.80
2019-04-10T21:06:39.544Z,6.80
2019-04-10T21:09:09.744Z,4.40
2019-04-10T21:11:39.868Z,5.37
2019-04-10T21:14:09.361Z,5.50
2019-04-10T21:16:40.152Z,4.00
2019-04-10T21:19:09.592Z,2.97
2019-04-10T21:21:41.124Z,3.43
2019-04-10T21:24:11.399Z,4.80
2019-04-10T21:26:40.944Z,6.03
2019-04-10T21:29:14.577Z,5.37
2019-04-10T21:31:56.764Z,4.67
2019-04-10T21:34:32.593Z,4.63
2019-04-10T21:37:02.154Z,4.53
2019-04-10T21:39:31.799Z,4.60
2019-04-10T21:42:13.125Z,4.40
2019-04-10T21:44:33.394Z,5.63
2019-04-10T21:47:03.524Z,5.87
2019-04-10T21:49:33.095Z,5.20
2019-04-10T21:52:02.373Z,4.23
2019-04-10T21:54:31.667Z,5.90
2019-04-10T21:57:01.883Z,3.60
2019-04-10T21:59:31.355Z,5.60
2019-04-10T22:02:00.712Z,6.50
2019-04-10T22:04:30.871Z,4.80
2019-04-10T22:07:20.426Z,4.90
2019-04-10T22:09:57.853Z,4.80
2019-04-10T22:12:34.555Z,3.87
2019-04-10T22:15:00.355Z,3.83
2019-04-10T22:17:30.054Z,4.67
2019-04-10T22:20:13.153Z,4.37
2019-04-10T22:22:42.945Z,4.27
2019-04-10T22:25:13.113Z,3.87
2019-04-10T22:27:43.509Z,4.67
2019-04-10T22:30:14.651Z,5.50
2019-04-10T22:32:44.548Z,5.77
2019-04-10T22:35:15.321Z,4.63
2019-04-10T22:37:44.893Z,4.43
2019-04-10T22:41:57.593Z,5.07
2019-04-10T22:44:34.920Z,5.43
2019-04-10T22:46:58.752Z,5.83
2019-04-10T22:49:28.788Z,4.83
2019-04-10T22:51:58.338Z,4.20
2019-04-10T22:54:30.423Z,5.97
2019-04-10T22:57:00.568Z,6.10
2019-04-10T22:59:30.557Z,5.50
2019-04-10T23:02:07.277Z,4.50
2019-04-10T23:04:32.817Z,4.50
2019-04-10T23:07:02.523Z,4.20
2019-04-10T23:09:32.650Z,2.10
2019-04-10T23:12:03.400Z,5.17
2019-04-10T23:14:32.723Z,4.50
2019-04-10T23:17:02.603Z,5.53
2019-04-10T23:19:31.826Z,5.90
2019-04-10T23:22:01.067Z,6.17
2019-04-10T23:24:30.305Z,4.70
2019-04-10T23:26:59.905Z,5.17
2019-04-10T23:29:30.834Z,3.83
2019-04-10T23:32:01.719Z,4.37
2019-04-10T23:34:32.588Z,5.47
2019-04-10T23:37:02.545Z,6.20
2019-04-10T23:39:32.346Z,3.37
2019-04-10T23:42:03.153Z,5.17
2019-04-10T23:44:34.430Z,4.67
2019-04-10T23:47:04.651Z,5.40
2019-04-10T23:49:33.917Z,4.57
2019-04-10T23:52:03.369Z,5.33
2019-04-10T23:54:33.315Z,4.27
2019-04-10T23:57:03.274Z,6.70
2019-04-10T23:59:33.023Z,6.40
